• Join FlightAware (Why Join?)
  • Login
  • US Flag 
05:45PM EDT


 

Airport Tracker/Info


-or-


 

Live Flight TrackerFlight Track Log ✈ N448ST ✈ 22-Jul-2013 ✈ KHTO - KMMU

Flight Track Log - Related Links

Times and Time Zones

All times are in EDT time to prevent confusion due to time zone crossing. See the N448ST flight status page for this flight to view local times or setup timezone preferences in your user account.

Time Position Orientation Groundspeed Altitude Reporting Facility
EDT Latitude Longitude Course Direction KTS MPH feet Rate Location/Type
11:17AM 40.9833 -72.2500 301° West 116 133 2,000  Level New York TRACON
11:18AM 41.0000 -72.2833 304° West 122 140 2,800 780 Climbing New York TRACON
11:19AM 41.0167 -72.3167 304° West 134 154 3,600 540 Climbing New York TRACON
11:20AM 41.0333 -72.3667 294° West 152 175 3,900 120 Climbing New York TRACON
11:21AM 41.0667 -72.4167 311° West 177 204 3,900  Level New York TRACON
11:22AM 41.0833 -72.4833 288° West 180 207 3,900  Level New York TRACON
11:23AM 41.0926 -72.5369 301° West  Level FlightAware Approximate
11:23AM 41.1167 -72.5333 312° West 181 208 3,900  Level New York TRACON
11:24AM 41.1333 -72.6000 288° West 182 209 3,900  Level New York TRACON
11:25AM 41.1500 -72.6500 294° West 178 205 3,900  Level New York TRACON
11:26AM 41.1833 -72.7000 312° West 181 208 3,900  Level New York TRACON
11:27AM 41.2000 -72.7667 288° West 180 207 3,900  Level New York TRACON
11:28AM 41.2333 -72.8167 312° West 180 207 3,900  Level New York TRACON
11:29AM 41.2500 -72.8667 294° West 179 206 3,900 240 Level New York TRACON
11:30AM 41.2667 -72.9333 288° West 163 188 4,400 600 Climbing New York TRACON
11:31AM 41.2667 -72.9833 270° West 139 160 5,200 660 Climbing New York TRACON
11:32AM 41.2667 -73.0333 270° West 142 163 5,800 360 Climbing New York TRACON
11:33AM 41.2667 -73.1000 270° West 160 184 6,000 60 Climbing New York TRACON
11:34AM 41.2667 -73.1667 270° West 169 194 6,000  Level New York TRACON
11:35AM 41.2667 -73.2167 270° West 169 194 6,000  Level New York TRACON
11:36AM 41.2667 -73.2833 270° West 171 197 6,000  Level New York TRACON
11:37AM 41.2667 -73.3500 270° West 170 196 6,000  Level New York TRACON
11:38AM 41.2667 -73.4167 270° West 168 193 6,100  Climbing New York TRACON
11:39AM 41.2667 -73.4667 270° West 172 198 6,000 -60 Descending New York TRACON
11:40AM 41.2833 -73.5333 288° West 172 198 6,000  Level New York TRACON
11:41AM 41.2833 -73.6000 270° West 172 198 6,000 -120 Level New York TRACON
11:42AM 41.2833 -73.6500 270° West 175 201 5,800 -480 Descending New York TRACON
11:43AM 41.2667 -73.7333 255° West 190 219 5,100 -420 Descending New York TRACON
11:44AM 41.2500 -73.7833 246° West 180 207 5,000 -60 Descending New York TRACON
11:45AM 41.2500 -73.8500 270° West 173 199 5,000 -120 Level New York TRACON
11:46AM 41.2500 -73.9167 270° West 173 199 4,800 -420 Descending New York TRACON
11:47AM 41.2333 -73.9833 252° West 191 220 4,200 -480 Descending New York TRACON
11:48AM 41.2333 -74.0500 270° West 187 215 4,000 -120 Descending New York TRACON
11:49AM 41.2000 -74.1000 228° Southwest 176 203 4,000  Level New York TRACON
11:50AM 41.1833 -74.1500 246° West 164 189 4,000  Level New York TRACON
11:51AM 41.1500 -74.2000 228° Southwest 165 190 4,000  Level New York TRACON
11:52AM 41.1167 -74.2333 217° Southwest 165 190 4,000 -300 Level New York TRACON
11:53AM 41.0833 -74.2667 217° Southwest 181 208 3,400 -540 Descending New York TRACON
11:54AM 41.0333 -74.2667 180° South 178 205 3,000 -360 Descending New York TRACON
11:55AM 40.9833 -74.2500 166° South 171 197 2,700 -480 Descending New York TRACON
11:56AM 40.9500 -74.2667 201° Southwest 187 215 2,100 -360 Descending New York TRACON
11:57AM 40.9167 -74.3000 217° Southwest 164 189 2,000 -60 Descending New York TRACON
11:58AM 40.8833 -74.3333 217° Southwest 155 178 2,000 -540 Level New York TRACON
11:59AM 40.8333 -74.3833 217° Southwest 154 177 900 -600 Descending New York TRACON
12:00PM 40.8000 -74.4000 201° Southwest 151 174 800 -120 Descending New York TRACON
12:02PM 40.7833 -74.4000 211° Southwest  Level FlightAware Approximate
12:09PM 40.7993 -74.4149 211° Southwest  Level Estimated
12:10PM 40.7993 -74.4149 211° Southwest  Level Estimated
12:11PM 40.7993 -74.4149 211° Southwest  Level Estimated